Time;durP1;ratioP1;P1;durP2;ratioP2;P2;SDS_P1;SDS_P2;PMS_P1;PMS_P2;Temp;Humidity;BMP_temperature;BMP_pressure;BME280_temperature;BME280_humidity;BME280_pressure;Samples;Min_cycle;Max_cycle;Signal;HPM_P1;HPM_P2
2023/09/20 00:02:08;;;;;;;7.50;2.80;;;;;;;16.81;100.00;100720.22;5055525;28;20112;-70
2023/09/20 00:04:35;;;;;;;6.88;2.30;;;;;;;16.80;100.00;100724.06;5037865;28;20045;-70
2023/09/20 00:07:01;;;;;;;8.18;2.58;;;;;;;16.77;100.00;100718.31;5038082;28;20440;-70
2023/09/20 00:09:27;;;;;;;9.45;2.63;;;;;;;16.75;100.00;100718.56;5055828;28;20056;-70
2023/09/20 00:11:53;;;;;;;6.15;2.33;;;;;;;16.73;100.00;100723.50;5056039;28;20059;-70
2023/09/20 00:14:19;;;;;;;8.18;2.80;;;;;;;16.66;100.00;100720.19;5056057;28;20065;-70
2023/09/20 00:16:44;;;;;;;8.95;2.50;;;;;;;16.63;100.00;100710.63;5056041;28;20060;-68
2023/09/20 00:19:09;;;;;;;8.52;3.13;;;;;;;16.62;100.00;100716.34;5055710;28;20045;-70
2023/09/20 00:21:35;;;;;;;8.57;2.78;;;;;;;16.61;100.00;100714.72;5056963;28;20021;-70
2023/09/20 00:24:00;;;;;;;7.75;2.85;;;;;;;16.62;100.00;100716.34;5061004;28;20024;-70
2023/09/20 00:26:25;;;;;;;7.88;2.55;;;;;;;16.58;100.00;100715.28;5055835;28;20453;-70
2023/09/20 00:28:51;;;;;;;9.15;2.67;;;;;;;16.58;100.00;100707.88;5055719;28;20032;-70
2023/09/20 00:31:16;;;;;;;8.90;2.88;;;;;;;16.56;100.00;100711.97;5055527;28;20025;-70
2023/09/20 00:33:43;;;;;;;7.22;2.67;;;;;;;16.54;100.00;100709.50;5055606;28;20038;-70
2023/09/20 00:36:08;;;;;;;8.25;2.58;;;;;;;16.48;100.00;100711.38;5055430;28;20200;-70
2023/09/20 00:38:34;;;;;;;8.80;2.45;;;;;;;16.50;100.00;100705.69;5055793;28;20233;-70
2023/09/20 00:41:04;;;;;;;7.28;2.70;;;;;;;16.52;100.00;100711.69;5055306;28;20472;-69
2023/09/20 00:43:29;;;;;;;7.57;2.70;;;;;;;16.47;100.00;100707.03;5055001;28;20484;-70
2023/09/20 00:45:54;;;;;;;9.48;2.85;;;;;;;16.47;100.00;100708.94;5055493;28;20033;-70
2023/09/20 00:48:20;;;;;;;7.65;2.60;;;;;;;16.46;100.00;100697.19;5055613;28;20071;-70
2023/09/20 00:50:45;;;;;;;7.90;2.60;;;;;;;16.45;100.00;100698.28;5055421;28;20060;-70
2023/09/20 00:53:12;;;;;;;7.22;2.58;;;;;;;16.45;100.00;100700.19;5067555;28;20029;-70
2023/09/20 00:55:39;;;;;;;8.73;2.50;;;;;;;16.45;100.00;100692.81;5075643;28;20045;-70
2023/09/20 00:58:07;;;;;;;7.60;2.53;;;;;;;16.47;100.00;100693.38;5075016;28;20029;-70
2023/09/20 01:00:36;;;;;;;6.18;2.78;;;;;;;16.47;100.00;100698.00;5072724;28;20055;-70
2023/09/20 01:03:02;;;;;;;7.55;2.55;;;;;;;16.50;100.00;100702.13;5071208;28;20421;-70
2023/09/20 01:05:28;;;;;;;6.95;2.60;;;;;;;16.48;100.00;100705.94;5054744;28;20075;-70
2023/09/20 01:07:56;;;;;;;6.15;2.30;;;;;;;16.50;100.00;100708.41;5055093;28;20473;-70
2023/09/20 01:10:23;;;;;;;7.15;2.40;;;;;;;16.47;100.00;100712.50;5054904;28;20033;-70
2023/09/20 01:12:56;;;;;;;6.10;2.50;;;;;;;16.45;100.00;100706.47;5037046;28;20144;-70
2023/09/20 01:15:22;;;;;;;7.38;2.67;;;;;;;16.46;100.00;100704.56;5054444;28;20025;-70
2023/09/20 01:17:49;;;;;;;7.00;2.45;;;;;;;16.44;100.00;100696.66;5055004;28;20029;-70
2023/09/20 01:20:17;;;;;;;10.88;2.92;;;;;;;16.43;100.00;100699.66;5054834;28;20028;-70
2023/09/20 01:22:43;;;;;;;7.80;2.60;;;;;;;16.44;100.00;100696.66;5067391;28;20033;-70
2023/09/20 01:25:11;;;;;;;7.38;2.45;;;;;;;16.41;100.00;100694.47;5074522;28;20150;-70
2023/09/20 01:27:39;;;;;;;7.28;2.47;;;;;;;16.42;100.00;100687.06;5074739;28;20032;-70
2023/09/20 01:30:05;;;;;;;8.55;2.80;;;;;;;16.40;100.00;100692.00;5074444;28;20379;-70
2023/09/20 01:32:30;;;;;;;7.50;2.85;;;;;;;16.41;100.00;100686.25;5074545;28;20414;-70
2023/09/20 01:34:56;;;;;;;6.75;2.67;;;;;;;16.40;100.00;100681.88;5074607;28;20055;-70
2023/09/20 01:37:21;;;;;;;9.20;2.72;;;;;;;16.40;100.00;100673.69;5074481;28;20074;-68
2023/09/20 01:39:47;;;;;;;8.20;2.80;;;;;;;16.39;100.00;100672.03;5074530;28;20024;-70
2023/09/20 01:42:12;;;;;;;8.50;2.97;;;;;;;16.39;100.00;100674.75;5074246;28;20158;-70
2023/09/20 01:44:37;;;;;;;8.40;2.45;;;;;;;16.40;100.00;100675.59;5072734;28;20040;-69
2023/09/20 01:47:04;;;;;;;8.38;2.78;;;;;;;16.40;100.00;100670.97;5074407;28;20035;-69
2023/09/20 01:49:32;;;;;;;8.30;2.85;;;;;;;16.42;100.00;100671.50;5074353;28;20024;-69
2023/09/20 01:51:58;;;;;;;7.72;2.55;;;;;;;16.42;100.00;100667.97;5072609;28;20035;-69
2023/09/20 01:54:23;;;;;;;8.52;2.50;;;;;;;16.45;100.00;100662.75;5073726;28;20029;-69
2023/09/20 01:56:49;;;;;;;8.00;2.92;;;;;;;16.47;100.00;100660.59;5074137;28;20375;-69
2023/09/20 01:59:15;;;;;;;7.55;2.55;;;;;;;16.52;100.00;100661.72;5055898;28;20033;-69
2023/09/20 02:01:41;;;;;;;7.30;2.65;;;;;;;16.58;100.00;100663.38;5071598;28;20120;-69
2023/09/20 02:04:06;;;;;;;7.97;2.42;;;;;;;16.59;100.00;100657.63;5073704;28;20123;-70
2023/09/20 02:06:32;;;;;;;7.65;2.80;;;;;;;16.63;100.00;100657.91;5072823;28;20036;-70
2023/09/20 02:08:57;;;;;;;9.50;2.83;;;;;;;16.66;100.00;100655.44;5074290;28;20032;-70
2023/09/20 02:11:24;;;;;;;8.63;2.92;;;;;;;16.67;100.00;100648.09;5073710;28;20078;-70
2023/09/20 02:13:49;;;;;;;6.38;2.53;;;;;;;16.64;100.00;100643.16;5073753;28;20107;-70
2023/09/20 02:16:14;;;;;;;6.32;2.63;;;;;;;16.69;100.00;100643.16;5073573;28;20051;-69
2023/09/20 02:18:40;;;;;;;9.13;2.92;;;;;;;16.72;100.00;100644.53;5073711;28;20035;-69
2023/09/20 02:21:06;;;;;;;7.90;2.60;;;;;;;16.72;100.00;100639.88;5073325;28;20074;-70
2023/09/20 02:23:32;;;;;;;8.55;2.67;;;;;;;16.74;100.00;100643.19;5073724;28;20498;-68
2023/09/20 02:25:58;;;;;;;8.93;3.05;;;;;;;16.75;100.00;100633.06;5073632;28;20064;-69
2023/09/20 02:28:24;;;;;;;7.18;3.00;;;;;;;16.77;100.00;100625.41;5067831;28;20465;-69
2023/09/20 02:30:50;;;;;;;7.95;3.05;;;;;;;16.76;100.00;100631.97;5053484;28;20032;-69
2023/09/20 02:33:18;;;;;;;9.13;2.85;;;;;;;16.77;100.00;100625.41;5052870;28;20473;-69
2023/09/20 02:35:45;;;;;;;7.65;2.70;;;;;;;16.75;100.00;100630.31;5053467;28;20060;-69
2023/09/20 02:38:10;;;;;;;11.95;3.13;;;;;;;16.76;100.00;100635.53;5052778;28;20071;-69
2023/09/20 02:40:36;;;;;;;8.50;2.65;;;;;;;16.76;100.00;100631.97;5053314;28;20025;-69
2023/09/20 02:43:04;;;;;;;6.18;2.90;;;;;;;16.78;100.00;100629.78;5053589;28;20035;-69
2023/09/20 02:45:30;;;;;;;5.60;2.60;;;;;;;16.77;100.00;100620.78;5053272;28;20029;-69
2023/09/20 02:47:57;;;;;;;6.30;2.60;;;;;;;16.75;100.00;100622.94;5053225;28;20083;-69
2023/09/20 02:50:23;;;;;;;7.40;2.60;;;;;;;16.74;100.00;100621.31;5052223;28;20985;-69
2023/09/20 02:52:51;;;;;;;8.65;2.75;;;;;;;16.73;100.00;100618.88;5054224;28;20111;-69
2023/09/20 02:55:20;;;;;;;10.15;3.10;;;;;;;16.70;100.00;100612.03;5072925;28;20033;-69
2023/09/20 02:57:49;;;;;;;8.48;2.70;;;;;;;16.72;100.00;100614.47;5073010;28;20024;-69
2023/09/20 03:00:16;;;;;;;8.23;2.63;;;;;;;16.68;100.00;100616.91;5072693;28;20024;-69
2023/09/20 03:02:45;;;;;;;10.30;3.05;;;;;;;16.64;100.00;100611.19;5071210;28;20024;-69
2023/09/20 03:05:16;;;;;;;5.20;2.40;;;;;;;16.62;100.00;100607.91;5072709;28;20041;-69
2023/09/20 03:07:43;;;;;;;8.15;2.85;;;;;;;16.60;100.00;100609.28;5072871;28;20024;-69
2023/09/20 03:10:12;;;;;;;6.75;2.60;;;;;;;16.58;100.00;100603.28;5072632;28;20111;-69
2023/09/20 03:12:39;;;;;;;7.13;2.58;;;;;;;16.56;100.00;100597.25;5072970;28;20036;-69
2023/09/20 03:15:09;;;;;;;7.22;2.63;;;;;;;16.53;100.00;100598.63;5053833;28;20072;-67
2023/09/20 03:17:34;;;;;;;9.73;2.95;;;;;;;16.52;100.00;100593.44;5052708;28;20072;-69
2023/09/20 03:20:00;;;;;;;5.88;2.67;;;;;;;16.47;100.00;100595.06;5052659;28;20465;-70
2023/09/20 03:22:26;;;;;;;7.80;2.72;;;;;;;16.47;100.00;100583.28;5052411;28;20087;-69
2023/09/20 03:24:51;;;;;;;9.00;2.90;;;;;;;16.44;100.00;100579.22;5052630;28;20031;-69
2023/09/20 03:27:16;;;;;;;9.80;2.78;;;;;;;16.45;100.00;100577.28;5052378;28;20029;-69
2023/09/20 03:29:42;;;;;;;9.23;3.15;;;;;;;16.39;100.00;100575.66;5034689;28;20029;-69
2023/09/20 03:32:08;;;;;;;6.15;2.70;;;;;;;16.37;100.00;100572.38;5051612;28;20025;-68
2023/09/20 03:34:33;;;;;;;9.15;2.97;;;;;;;16.34;100.00;100579.19;5052269;28;20033;-69
2023/09/20 03:36:59;;;;;;;7.10;2.70;;;;;;;16.34;100.00;100581.91;5064868;28;20371;-69
2023/09/20 03:39:24;;;;;;;7.97;3.05;;;;;;;16.32;100.00;100591.47;5072301;28;20021;-69
2023/09/20 03:41:51;;;;;;;6.22;2.38;;;;;;;16.28;100.00;100586.53;5072455;28;20078;-70
2023/09/20 03:44:17;;;;;;;7.55;2.45;;;;;;;16.23;100.00;100594.72;5072210;28;20020;-69
2023/09/20 03:46:42;;;;;;;8.93;2.83;;;;;;;16.23;100.00;100588.44;5072735;28;20119;-68
2023/09/20 03:49:07;;;;;;;9.60;2.67;;;;;;;16.22;100.00;100592.28;5054527;28;20068;-70
2023/09/20 03:51:32;;;;;;;7.90;2.78;;;;;;;16.21;100.00;100591.44;5072322;28;20037;-69
2023/09/20 03:53:58;;;;;;;9.15;3.10;;;;;;;16.16;100.00;100593.34;5072361;28;20020;-69
2023/09/20 03:56:23;;;;;;;8.20;2.47;;;;;;;16.06;100.00;100589.50;5072091;28;20033;-70
2023/09/20 03:58:48;;;;;;;6.65;2.65;;;;;;;16.06;100.00;100584.03;5070039;28;20375;-69
2023/09/20 04:01:15;;;;;;;7.43;2.58;;;;;;;16.00;100.00;100585.09;5069574;28;20107;-69
2023/09/20 04:03:42;;;;;;;8.55;2.63;;;;;;;16.02;100.00;100584.81;5071956;28;20127;-70
2023/09/20 04:06:07;;;;;;;8.90;2.80;;;;;;;15.99;100.00;100582.63;5072264;28;20029;-69
2023/09/20 04:08:32;;;;;;;5.00;2.78;;;;;;;15.97;100.00;100582.09;5071990;28;20036;-70
2023/09/20 04:11:05;;;;;;;10.13;3.30;;;;;;;15.97;100.00;100587.53;5067801;28;20050;-73
2023/09/20 04:13:34;;;;;;;8.32;2.80;;;;;;;15.89;100.00;100586.16;5063565;28;20024;-71
2023/09/20 04:16:03;;;;;;;7.07;2.90;;;;;;;15.90;100.00;100576.91;5063893;28;20119;-70
2023/09/20 04:18:28;;;;;;;10.30;2.92;;;;;;;15.89;100.00;100572.50;5051767;28;20041;-70
2023/09/20 04:20:53;;;;;;;8.80;2.80;;;;;;;15.88;100.00;100571.69;5052523;28;20041;-71
2023/09/20 04:23:19;;;;;;;11.32;3.05;;;;;;;15.87;100.00;100566.50;5052647;28;20143;-68
2023/09/20 04:25:44;;;;;;;6.88;2.83;;;;;;;15.83;100.00;100559.94;5053055;28;20111;-70
2023/09/20 04:28:09;;;;;;;8.75;2.72;;;;;;;15.81;100.00;100562.94;5051548;28;20039;-70
2023/09/20 04:30:38;;;;;;;7.55;2.97;;;;;;;15.79;100.00;100556.09;5052992;28;20071;-70
2023/09/20 04:33:05;;;;;;;8.68;2.72;;;;;;;15.78;100.00;100560.75;5056188;28;20029;-70
2023/09/20 04:35:30;;;;;;;5.85;2.67;;;;;;;15.75;100.00;100553.88;5033763;28;20029;-70
2023/09/20 04:37:55;;;;;;;7.13;2.60;;;;;;;15.71;100.00;100543.75;5034059;28;20167;-70
2023/09/20 04:40:21;;;;;;;9.15;2.70;;;;;;;15.73;100.00;100552.50;5051395;28;20354;-70
2023/09/20 04:42:46;;;;;;;7.80;3.00;;;;;;;15.68;100.00;100536.13;5034350;28;20505;-69
2023/09/20 04:45:14;;;;;;;8.15;3.30;;;;;;;15.69;100.00;100538.56;5054135;28;20033;-69
2023/09/20 04:47:40;;;;;;;8.52;2.80;;;;;;;15.68;100.00;100538.84;5055540;28;20107;-69
2023/09/20 04:50:06;;;;;;;7.85;2.63;;;;;;;15.65;100.00;100544.84;5055219;28;20047;-74
2023/09/20 04:52:31;;;;;;;8.23;2.90;;;;;;;15.64;100.00;100549.47;5037223;28;20032;-74
2023/09/20 04:54:57;;;;;;;5.90;2.80;;;;;;;15.63;100.00;100541.56;5055139;28;20037;-70
2023/09/20 04:57:23;;;;;;;7.63;2.95;;;;;;;15.65;100.00;100542.09;5055092;28;20029;-69
2023/09/20 04:59:50;;;;;;;9.07;3.00;;;;;;;15.63;100.00;100542.38;5055286;28;20025;-69
2023/09/20 05:02:15;;;;;;;8.63;3.03;;;;;;;15.62;100.00;100539.91;5052540;28;20032;-69
2023/09/20 05:04:40;;;;;;;11.00;3.00;;;;;;;15.64;100.00;100538.56;5054637;28;20051;-68
2023/09/20 05:07:06;;;;;;;8.20;2.83;;;;;;;15.65;100.00;100532.00;5055069;28;20029;-69
2023/09/20 05:09:34;;;;;;;7.65;2.92;;;;;;;15.62;100.00;100538.00;5054839;28;20468;-69
2023/09/20 05:11:59;;;;;;;7.25;2.95;;;;;;;15.60;100.00;100532.81;5054685;28;20025;-69
2023/09/20 05:14:25;;;;;;;6.95;2.55;;;;;;;15.57;100.00;100536.06;5054515;28;20029;-69
2023/09/20 05:16:50;;;;;;;7.57;3.20;;;;;;;15.60;100.00;100537.44;5054923;28;20029;-70
2023/09/20 05:19:16;;;;;;;9.65;2.92;;;;;;;15.61;100.00;100547.28;5054404;28;20108;-67
2023/09/20 05:21:42;;;;;;;6.45;2.70;;;;;;;15.60;100.00;100545.63;5054776;28;20060;-68
2023/09/20 05:24:07;;;;;;;7.03;2.92;;;;;;;15.58;100.00;100551.34;5054777;28;20065;-68
2023/09/20 05:26:32;;;;;;;12.00;3.17;;;;;;;15.59;100.00;100546.72;5054557;28;20032;-68
2023/09/20 05:28:58;;;;;;;8.20;3.00;;;;;;;15.58;100.00;100542.38;5053197;28;20051;-68
2023/09/20 05:31:25;;;;;;;11.50;3.33;;;;;;;15.60;100.00;100543.72;5074480;28;20521;-68
2023/09/20 05:33:51;;;;;;;10.52;3.20;;;;;;;15.58;100.00;100531.47;5074588;28;20078;-68
2023/09/20 05:36:21;;;;;;;10.00;3.42;;;;;;;15.58;100.00;100535.00;5072396;28;20418;-67
2023/09/20 05:38:48;;;;;;;7.38;2.80;;;;;;;15.57;100.00;100535.25;5074631;28;20044;-68
2023/09/20 05:41:15;;;;;;;8.52;3.13;;;;;;;15.60;100.00;100529.28;5074606;28;20021;-68
2023/09/20 05:43:42;;;;;;;10.20;3.40;;;;;;;15.56;100.00;100525.44;5056534;28;20485;-69
2023/09/20 05:46:10;;;;;;;8.77;2.95;;;;;;;15.58;100.00;100529.53;5074397;28;20032;-69
2023/09/20 05:48:36;;;;;;;9.02;2.80;;;;;;;15.59;100.00;100524.91;5056148;28;20086;-70
2023/09/20 05:51:01;;;;;;;6.10;2.70;;;;;;;15.56;100.00;100526.25;5074284;28;20480;-71
2023/09/20 05:53:28;;;;;;;10.93;3.40;;;;;;;15.57;100.00;100521.63;5073966;28;20037;-70
2023/09/20 05:55:53;;;;;;;9.82;2.80;;;;;;;15.58;100.00;100523.28;5072507;28;20070;-70
2023/09/20 05:58:19;;;;;;;10.00;2.90;;;;;;;15.60;100.00;100521.91;5055996;28;20440;-72
2023/09/20 06:00:44;;;;;;;8.77;2.72;;;;;;;15.64;100.00;100532.28;5071674;28;20059;-76
2023/09/20 06:03:12;;;;;;;10.57;3.17;;;;;;;15.60;100.00;100534.72;5055889;28;20115;-69
2023/09/20 06:05:38;;;;;;;7.95;3.00;;;;;;;15.64;100.00;100526.81;5073328;28;20048;-69
2023/09/20 06:08:05;;;;;;;7.82;2.60;;;;;;;15.64;100.00;100535.84;5073682;28;20035;-70
2023/09/20 06:10:31;;;;;;;6.40;2.40;;;;;;;15.66;100.00;100528.19;5073377;28;20506;-68
2023/09/20 06:12:57;;;;;;;7.53;2.85;;;;;;;15.70;100.00;100521.13;5073798;28;20025;-70
2023/09/20 06:15:22;;;;;;;5.38;2.42;;;;;;;15.70;100.00;100520.28;5055678;28;20119;-71
2023/09/20 06:17:47;;;;;;;10.55;3.10;;;;;;;15.67;100.00;100521.66;5071564;28;20024;-70
2023/09/20 06:20:19;;;;;;;6.35;2.60;;;;;;;15.73;100.00;100523.31;5073715;28;20439;-69
2023/09/20 06:22:51;;;;;;;6.00;2.70;;;;;;;15.79;100.00;100513.25;5073707;28;20056;-71
2023/09/20 06:25:20;;;;;;;7.70;2.72;;;;;;;15.84;100.00;100523.41;5073192;28;20061;-69
2023/09/20 06:27:50;;;;;;;7.75;2.92;;;;;;;15.87;100.00;100514.66;5073641;28;20026;-73
2023/09/20 06:30:17;;;;;;;5.82;2.47;;;;;;;15.87;100.00;100515.47;5052039;28;20025;-70
2023/09/20 06:32:44;;;;;;;6.82;2.60;;;;;;;15.94;100.00;100526.13;5053401;28;20033;-69
2023/09/20 06:35:10;;;;;;;4.45;2.40;;;;;;;15.97;100.00;100527.50;5053401;28;20063;-70
2023/09/20 06:37:36;;;;;;;6.90;2.58;;;;;;;15.99;100.00;100528.88;5053000;28;20415;-69
2023/09/20 06:40:03;;;;;;;5.47;2.50;;;;;;;16.04;100.00;100530.81;5062394;28;20032;-70
2023/09/20 06:42:30;;;;;;;8.60;3.00;;;;;;;16.06;100.00;100523.16;5072923;28;20521;-70
2023/09/20 06:44:56;;;;;;;6.85;2.53;;;;;;;16.11;100.00;100529.47;5073168;28;20036;-70
2023/09/20 06:47:22;;;;;;;8.05;2.50;;;;;;;16.13;100.00;100524.53;5072933;28;20029;-69
2023/09/20 06:49:47;;;;;;;7.50;2.60;;;;;;;16.19;100.00;100521.84;5073124;28;20028;-71
2023/09/20 06:52:12;;;;;;;6.07;2.42;;;;;;;16.21;100.00;100525.91;5072559;28;20054;-73
2023/09/20 06:54:38;;;;;;;9.48;2.90;;;;;;;16.24;100.00;100524.56;5072758;28;20043;-74
2023/09/20 06:57:04;;;;;;;4.72;2.30;;;;;;;16.30;100.00;100532.50;5054946;28;20025;-72
2023/09/20 06:59:33;;;;;;;7.85;2.60;;;;;;;16.36;100.00;100533.31;5072476;28;20024;-71
2023/09/20 07:02:00;;;;;;;7.10;2.40;;;;;;;16.38;100.00;100525.69;5068407;28;20017;-72
2023/09/20 07:04:25;;;;;;;6.03;2.20;;;;;;;16.42;100.00;100529.50;5058465;28;20480;-71
2023/09/20 07:06:52;;;;;;;6.50;2.55;;;;;;;16.44;100.00;100529.22;5052773;28;20032;-71
2023/09/20 07:09:19;;;;;;;6.55;2.60;;;;;;;16.50;100.00;100527.31;5052905;28;20033;-67
2023/09/20 07:11:46;;;;;;;7.18;2.40;;;;;;;16.49;100.00;100526.50;5052410;28;20392;-69
2023/09/20 07:14:12;;;;;;;3.40;2.38;;;;;;;16.54;100.00;100517.50;5052703;28;20471;-67
2023/09/20 07:16:39;;;;;;;5.07;2.30;;;;;;;16.57;100.00;100515.00;5052752;28;20057;-68
2023/09/20 07:19:05;;;;;;;6.40;2.58;;;;;;;16.58;100.00;100515.84;5052972;28;20031;-68
2023/09/20 07:21:37;;;;;;;5.97;2.20;;;;;;;16.62;100.00;100512.31;5052102;28;20035;-70
2023/09/20 07:24:03;;;;;;;6.20;2.80;;;;;;;16.66;100.00;100515.28;5060579;28;20479;-70
2023/09/20 07:26:28;;;;;;;6.53;2.80;;;;;;;16.70;100.00;100519.13;5046232;28;20025;-70
2023/09/20 07:28:54;;;;;;;6.40;2.65;;;;;;;16.77;100.00;100516.09;5061791;28;20071;-72
2023/09/20 07:31:21;;;;;;;5.35;2.20;;;;;;;16.79;100.00;100514.75;5061002;28;20090;-70
2023/09/20 07:33:48;;;;;;;6.10;2.53;;;;;;;16.79;100.00;100519.41;5059473;28;20067;-69
2023/09/20 07:36:13;;;;;;;7.43;2.60;;;;;;;16.82;100.00;100522.38;5051887;28;20039;-70
2023/09/20 07:38:38;;;;;;;7.00;2.55;;;;;;;16.83;100.00;100521.31;5051860;28;20021;-70
2023/09/20 07:41:08;;;;;;;6.47;2.35;;;;;;;16.87;100.00;100526.25;5052307;28;20381;-70
2023/09/20 07:43:34;;;;;;;5.05;2.40;;;;;;;16.91;100.00;100527.31;5052037;28;20032;-71
2023/09/20 07:46:03;;;;;;;7.00;2.50;;;;;;;16.93;100.00;100525.16;5055854;28;20028;-72
2023/09/20 07:48:30;;;;;;;5.75;2.55;;;;;;;16.93;100.00;100525.94;5043478;28;20056;-72
2023/09/20 07:50:56;;;;;;;6.28;2.50;;;;;;;16.94;100.00;100524.88;5059746;28;20395;-70
2023/09/20 07:53:21;;;;;;;6.43;2.67;;;;;;;16.94;100.00;100524.03;5072286;28;20025;-69
2023/09/20 07:56:03;;;;;;;6.32;2.50;;;;;;;16.97;100.00;100531.72;5072361;28;20055;-70
2023/09/20 07:58:29;;;;;;;7.03;2.72;;;;;;;16.99;100.00;100519.38;5072063;28;20060;-70
2023/09/20 08:00:56;;;;;;;4.07;2.35;;;;;;;17.02;100.00;100522.69;5070034;28;20434;-71
2023/09/20 08:03:23;;;;;;;7.53;2.80;;;;;;;17.04;100.00;100513.09;5069520;28;20052;-71
2023/09/20 08:05:48;;;;;;;6.78;2.45;;;;;;;17.07;100.00;100514.47;5071081;28;20033;-71
2023/09/20 08:08:14;;;;;;;6.70;2.45;;;;;;;17.10;100.00;100514.72;5071029;28;20464;-71
2023/09/20 08:10:41;;;;;;;6.70;2.65;;;;;;;17.14;100.00;100520.47;5071973;28;20060;-70
2023/09/20 08:13:07;;;;;;;8.63;2.85;;;;;;;17.17;100.00;100517.16;5057204;28;20047;-69
2023/09/20 08:15:42;;;;;;;9.38;3.20;;;;;;;17.19;100.00;100520.44;5071664;28;20028;-70
2023/09/20 08:20:53;;;;;;;6.80;2.90;;;;;;;17.24;100.00;100530.53;5055913;28;20109;-71
2023/09/20 09:01:44;;;;;;;7.22;2.90;;;;;;;18.01;100.00;100538.47;5052750;28;20495;-71
2023/09/20 09:04:12;;;;;;;3.92;2.47;;;;;;;18.05;100.00;100545.00;5055087;28;20055;-73
2023/09/20 09:06:39;;;;;;;7.13;2.60;;;;;;;18.11;100.00;100538.41;5054952;28;20040;-75
2023/09/20 09:09:04;;;;;;;5.22;2.45;;;;;;;18.13;100.00;100536.22;5055111;28;20032;-70
2023/09/20 09:11:31;;;;;;;6.63;2.72;;;;;;;18.13;100.00;100529.91;5054442;28;20037;-71
2023/09/20 09:13:58;;;;;;;6.40;2.70;;;;;;;18.15;100.00;100544.97;5071325;28;20062;-69
2023/09/20 09:16:26;;;;;;;5.72;2.72;;;;;;;18.17;100.00;100541.94;5069569;28;20029;-72
2023/09/20 09:18:53;;;;;;;4.60;2.25;;;;;;;18.21;100.00;100543.00;5073445;28;20434;-72
2023/09/20 09:21:19;;;;;;;4.95;2.20;;;;;;;18.20;100.00;100533.16;5074882;28;20021;-70
2023/09/20 09:23:47;;;;;;;6.40;2.42;;;;;;;18.24;100.00;100536.97;5074585;28;20035;-71
2023/09/20 09:26:16;;;;;;;4.68;2.50;;;;;;;18.23;100.00;100535.31;5074501;28;20028;-71
2023/09/20 09:28:42;;;;;;;5.15;2.60;;;;;;;18.27;100.00;100530.09;5058486;28;20512;-72
2023/09/20 09:31:08;;;;;;;5.60;2.33;;;;;;;18.35;100.00;100543.19;5052727;28;20048;-70
2023/09/20 09:33:37;;;;;;;5.25;2.47;;;;;;;18.39;100.00;100533.31;5055677;28;20107;-72
2023/09/20 09:36:04;;;;;;;5.47;2.47;;;;;;;18.47;100.00;100532.69;5074274;28;20031;-73
2023/09/20 09:38:32;;;;;;;4.65;2.03;;;;;;;18.50;100.00;100534.03;5041095;28;20388;-73
2023/09/20 09:40:58;;;;;;;7.22;2.40;;;;;;;18.53;100.00;100533.47;5038817;28;20390;-72
2023/09/20 09:43:23;;;;;;;5.85;2.50;;;;;;;18.56;100.00;100527.41;5068844;28;20036;-69
2023/09/20 09:45:49;;;;;;;7.53;2.35;;;;;;;18.62;100.00;100519.97;5038756;28;20029;-73
2023/09/20 09:48:16;;;;;;;4.93;2.17;;;;;;;18.66;100.00;100521.84;5053947;28;20036;-72
2023/09/20 09:50:46;;;;;;;6.15;2.30;;;;;;;18.71;100.00;100519.06;5073834;28;20090;-72
2023/09/20 09:53:13;;;;;;;5.65;2.17;;;;;;;18.74;100.00;100513.00;5056014;28;20059;-71
2023/09/20 09:55:40;;;;;;;6.60;2.40;;;;;;;18.84;100.00;100512.09;5073707;28;20032;-70
2023/09/20 09:58:08;;;;;;;6.85;2.13;;;;;;;18.87;100.00;100507.97;5074100;28;20052;-72
2023/09/20 10:00:36;;;;;;;10.05;2.53;;;;;;;18.93;100.00;100510.41;5044029;28;20024;-71
2023/09/20 10:03:19;;;;;;;5.82;2.35;;;;;;;19.04;100.00;100502.06;5066193;28;20426;-74
2023/09/20 10:05:46;;;;;;;6.47;2.00;;;;;;;19.06;100.00;100497.91;5066179;28;20040;-75
2023/09/20 10:08:13;;;;;;;5.22;2.10;;;;;;;19.12;100.00;100501.41;5064587;28;20082;-72
2023/09/20 10:10:41;;;;;;;5.28;2.13;;;;;;;19.17;100.00;100501.34;5053424;28;20037;-69
2023/09/20 10:13:08;;;;;;;4.10;2.20;;;;;;;19.20;100.00;100505.44;5061114;28;20028;-71
2023/09/20 10:15:35;;;;;;;9.38;2.42;;;;;;;19.25;100.00;100499.91;5054106;28;20016;-72
2023/09/20 10:18:01;;;;;;;6.35;2.20;;;;;;;19.27;100.00;100501.25;5039436;28;20025;-73
2023/09/20 10:20:58;;;;;;;4.38;2.10;;;;;;;19.42;100.00;100493.94;5053433;28;20460;-72
2023/09/20 10:23:24;;;;;;;8.10;2.30;;;;;;;19.54;100.00;100480.63;5054947;28;20024;-72
2023/09/20 10:25:49;;;;;;;4.32;1.80;;;;;;;19.58;100.00;100500.88;5043123;28;20056;-72
2023/09/20 10:28:17;;;;;;;8.20;2.05;;;;;;;19.64;100.00;100490.63;5053232;28;20061;-71
2023/09/20 10:31:01;;;;;;;3.42;1.80;;;;;;;19.72;100.00;100489.19;5067459;28;20028;-70
2023/09/20 10:33:46;;;;;;;4.93;1.85;;;;;;;19.78;100.00;100490.78;5072934;28;20136;-70
2023/09/20 10:36:33;;;;;;;6.93;1.75;;;;;;;19.86;100.00;100492.03;5073206;28;20032;-70
2023/09/20 10:39:17;;;;;;;5.25;1.80;;;;;;;19.89;100.00;100481.25;5073130;28;20111;-71
2023/09/20 10:41:44;;;;;;;6.35;1.58;;;;;;;19.88;100.00;100474.13;5073012;28;20029;-71
2023/09/20 10:44:26;;;;;;;6.55;1.60;;;;;;;19.87;100.00;100472.53;5067139;28;20064;-72
2023/09/20 10:46:52;;;;;;;4.65;1.75;;;;;;;19.83;100.00;100460.50;5061501;28;20024;-72
2023/09/20 10:49:39;;;;;;;3.97;1.75;;;;;;;19.90;100.00;100466.44;5074338;28;20040;-71
2023/09/20 10:52:05;;;;;;;6.10;1.52;;;;;;;19.94;100.00;100467.47;5082028;28;20043;-70
2023/09/20 10:54:34;;;;;;;2.83;1.50;;;;;;;19.95;100.00;100462.78;5074915;28;20025;-71
2023/09/20 10:57:03;;;;;;;5.68;1.58;;;;;;;19.97;100.00;100460.56;5053801;28;20020;-71
2023/09/20 10:59:30;;;;;;;4.85;1.55;;;;;;;20.02;100.00;100457.75;5052581;28;20025;-71
2023/09/20 11:02:08;;;;;;;3.97;1.40;;;;;;;20.04;100.00;100454.72;5064368;28;20035;-72
2023/09/20 11:04:34;;;;;;;4.53;1.50;;;;;;;20.09;100.00;100460.09;5067790;28;20079;-72
2023/09/20 11:06:59;;;;;;;5.15;1.63;;;;;;;;;;5072907;28;20021;-71
2023/09/20 11:09:30;;;;;;;5.93;1.67;;;;;;;20.16;100.00;100453.13;5072890;28;20146;-71
2023/09/20 11:12:04;;;;;;;11.25;1.75;;;;;;;20.15;100.00;100445.16;5072234;28;20460;-70
2023/09/20 11:14:31;;;;;;;14.40;2.40;;;;;;;20.12;100.00;100451.25;5052323;28;20029;-71
2023/09/20 11:16:56;;;;;;;7.15;2.00;;;;;;;20.10;100.00;100442.53;5052658;28;20590;-71
2023/09/20 11:19:22;;;;;;;14.95;2.72;;;;;;;;;;5053041;28;20044;-71
2023/09/20 11:21:47;;;;;;;38.43;4.00;;;;;;;20.17;100.00;100451.19;5052192;28;20108;-71
2023/09/20 11:24:14;;;;;;;5.90;1.60;;;;;;;20.21;100.00;100449.47;5060013;28;20460;-71
2023/09/20 11:26:40;;;;;;;10.02;1.77;;;;;;;20.27;100.00;100451.00;5052390;28;20036;-71
2023/09/20 11:29:09;;;;;;;27.80;3.45;;;;;;;20.32;100.00;100459.19;5046238;28;20029;-71
2023/09/20 11:31:35;;;;;;;21.23;2.88;;;;;;;20.25;100.00;100453.25;5072607;28;20104;-71
2023/09/20 11:34:03;;;;;;;64.97;5.30;;;;;;;20.19;100.00;100448.97;5072438;28;20472;-71
2023/09/20 11:36:29;;;;;;;18.30;2.20;;;;;;;20.12;100.00;100451.25;5072463;28;20111;-71
2023/09/20 11:38:55;;;;;;;7.25;1.90;;;;;;;20.08;100.00;100453.81;5072307;28;20036;-71
2023/09/20 11:41:22;;;;;;;5.60;1.42;;;;;;;20.09;100.00;100458.16;5072601;28;20094;-71
2023/09/20 11:43:47;;;;;;;3.03;1.38;;;;;;;20.09;100.00;100462.84;5067122;28;20115;-71
2023/09/20 11:46:13;;;;;;;5.45;1.60;;;;;;;20.05;100.00;100456.31;5043639;28;20120;-71
2023/09/20 11:48:38;;;;;;;4.45;1.48;;;;;;;20.03;100.00;100464.84;5052153;28;20112;-70
2023/09/20 11:51:04;;;;;;;7.70;1.55;;;;;;;20.03;100.00;100448.38;5052392;28;20108;-71
2023/09/20 11:53:31;;;;;;;6.55;1.60;;;;;;;20.04;100.00;100455.50;5052521;28;20029;-71
2023/09/20 11:55:59;;;;;;;6.65;1.63;;;;;;;20.11;100.00;100453.22;5056532;28;20068;-71
2023/09/20 11:58:24;;;;;;;3.95;1.63;;;;;;;20.14;100.00;100449.03;5059603;28;20052;-78